Imlay, Michigan
Current Conditions -  °F | °C
As of 1:13 PM on Monday 22 Dec 2014 (Local Time) from KD95 Reporting Station
Clear Clear  
Wind Chill: 31°   Ceiling: Unl
Heat Index: 37°   Visibility: 10mi
Dew Point: 27°   Wind: 8mph
Humidity: 68%   Direction: 130°SE
Pressure: 29.99"   Gusts: NA
Location:  43.0674°N, 83.0557°W
Report Text: KD95 221813Z AUTO 13007KT 10SM CLR 03/M03 A2999 RMK AO2 T00261027
Loading
Personal Weather Stations






























Interactive Weather Map New forecast layout! Learn more

10-Day Weather Forecast

Advertisements
Track Severe Weather on mobile